Time;durP1;ratioP1;P1;durP2;ratioP2;P2;SDS_P1;SDS_P2;PMS_P1;PMS_P2;Temp;Humidity;BMP_temperature;BMP_pressure;BME280_temperature;BME280_humidity;BME280_pressure;Samples;Min_cycle;Max_cycle;Signal;HPM_P1;HPM_P2
2022/06/30 00:00:56;;;;;;;13.55;12.07;;;19.70;99.90;;;;;;5093025;28;20020;-73
2022/06/30 00:03:22;;;;;;;13.38;12.05;;;19.70;99.90;;;;;;5091905;28;20131;-73
2022/06/30 00:05:47;;;;;;;12.43;11.20;;;19.70;99.90;;;;;;5092021;28;20118;-73
2022/06/30 00:08:13;;;;;;;13.82;12.50;;;19.70;99.90;;;;;;5092544;28;20031;-73
2022/06/30 00:10:39;;;;;;;13.20;11.18;;;19.70;99.90;;;;;;5092929;28;20031;-74
2022/06/30 00:13:04;;;;;;;12.93;11.68;;;19.70;99.90;;;;;;5091451;28;20059;-73
2022/06/30 00:15:30;;;;;;;12.60;11.45;;;19.60;99.90;;;;;;5093016;28;20049;-73
2022/06/30 00:17:56;;;;;;;12.00;11.02;;;19.60;99.90;;;;;;5092591;28;20052;-73
2022/06/30 00:20:22;;;;;;;12.88;11.63;;;19.60;99.90;;;;;;5091977;28;20044;-74
2022/06/30 00:22:47;;;;;;;11.50;10.52;;;19.60;99.90;;;;;;5092866;28;20027;-75
2022/06/30 00:25:13;;;;;;;11.55;10.65;;;19.60;99.90;;;;;;5092458;28;20016;-74
2022/06/30 00:27:39;;;;;;;17.50;10.35;;;19.60;99.90;;;;;;5091934;28;20028;-73
2022/06/30 00:30:06;;;;;;;12.27;11.05;;;19.60;99.90;;;;;;5092034;28;20376;-73
2022/06/30 00:32:31;;;;;;;11.13;10.10;;;19.60;99.90;;;;;;5092269;28;20111;-73
2022/06/30 00:34:58;;;;;;;11.98;10.82;;;19.50;99.90;;;;;;5091183;28;20602;-74
2022/06/30 00:37:23;;;;;;;10.77;9.75;;;19.50;99.90;;;;;;5092320;28;20012;-74
2022/06/30 00:39:49;;;;;;;11.18;10.30;;;19.50;99.90;;;;;;5092226;28;20056;-73
2022/06/30 00:42:15;;;;;;;11.48;10.50;;;19.50;99.90;;;;;;5092158;28;20055;-73
2022/06/30 00:44:41;;;;;;;11.18;9.50;;;19.50;99.90;;;;;;5092714;28;20052;-74
2022/06/30 00:47:06;;;;;;;12.48;11.18;;;19.50;99.90;;;;;;5091359;28;20030;-74
2022/06/30 00:49:32;;;;;;;10.93;9.85;;;19.50;99.90;;;;;;5089060;28;20048;-74
2022/06/30 00:52:01;;;;;;;10.20;9.30;;;19.50;99.90;;;;;;5081803;28;20062;-74
2022/06/30 00:54:27;;;;;;;11.05;10.02;;;19.50;99.90;;;;;;5091748;28;20522;-74
2022/06/30 00:56:55;;;;;;;10.73;9.82;;;19.50;99.90;;;;;;5092202;28;20357;-74
2022/06/30 00:59:22;;;;;;;10.63;9.68;;;19.50;99.90;;;;;;5092207;28;20028;-74
2022/06/30 01:01:49;;;;;;;11.05;9.30;;;19.50;99.90;;;;;;5091661;28;20086;-74
2022/06/30 01:04:16;;;;;;;10.52;9.63;;;19.50;99.90;;;;;;5092160;28;20491;-74
2022/06/30 01:06:46;;;;;;;11.45;10.25;;;19.50;99.90;;;;;;5092148;28;20028;-74
2022/06/30 01:12:41;;;;;;;10.63;9.73;;;19.50;99.90;;;;;;5091289;28;20073;-73
2022/06/30 01:14:43;;;;;;;11.38;10.18;;;19.50;99.90;;;;;;5092342;28;20074;-73
2022/06/30 01:17:10;;;;;;;11.55;10.00;;;19.50;99.90;;;;;;5091006;28;20044;-73
2022/06/30 01:19:36;;;;;;;10.85;9.85;;;19.40;99.90;;;;;;5092053;28;20040;-73
2022/06/30 01:22:02;;;;;;;12.35;11.07;;;19.40;99.90;;;;;;5091910;28;20089;-73
2022/06/30 01:24:28;;;;;;;11.93;10.73;;;19.40;99.90;;;;;;5091237;28;20028;-74
2022/06/30 01:26:57;;;;;;;10.85;9.63;;;19.40;99.90;;;;;;5091912;28;20016;-74
2022/06/30 01:29:23;;;;;;;11.60;10.45;;;19.40;99.90;;;;;;5091067;28;20554;-73
2022/06/30 01:31:49;;;;;;;12.38;11.00;;;19.40;99.90;;;;;;5091549;28;20115;-73
2022/06/30 01:34:15;;;;;;;13.18;11.88;;;19.30;99.90;;;;;;5091617;28;20036;-74
2022/06/30 01:36:42;;;;;;;12.38;11.23;;;19.30;99.90;;;;;;5090918;28;20101;-74
2022/06/30 01:39:07;;;;;;;11.98;10.70;;;19.40;99.90;;;;;;5091603;28;20035;-73
2022/06/30 01:41:33;;;;;;;13.55;12.27;;;19.30;99.90;;;;;;5092091;28;20103;-73
2022/06/30 01:43:59;;;;;;;14.10;12.70;;;19.30;99.90;;;;;;5091132;28;20027;-73
2022/06/30 01:46:25;;;;;;;12.77;11.43;;;19.30;99.90;;;;;;5091871;28;20508;-74
2022/06/30 01:48:50;;;;;;;14.15;12.85;;;19.20;99.90;;;;;;5095211;28;20028;-75
2022/06/30 01:51:16;;;;;;;15.10;12.85;;;19.30;99.90;;;;;;5080777;28;20046;-73
2022/06/30 01:53:41;;;;;;;14.18;12.85;;;19.20;99.90;;;;;;5094964;28;20368;-73
2022/06/30 01:56:07;;;;;;;17.67;14.40;;;19.20;99.90;;;;;;5093877;28;20047;-73
2022/06/30 01:58:33;;;;;;;14.43;13.05;;;19.20;99.90;;;;;;5094150;28;20020;-75
2022/06/30 02:00:58;;;;;;;17.50;15.77;;;19.20;99.90;;;;;;5094653;28;20034;-74
2022/06/30 02:03:24;;;;;;;20.75;15.10;;;19.40;99.90;;;;;;5094285;28;20071;-73
2022/06/30 02:05:50;;;;;;;18.48;16.33;;;19.50;99.90;;;;;;5081740;28;20036;-72
2022/06/30 02:08:15;;;;;;;16.98;15.43;;;19.50;99.90;;;;;;5075147;28;20115;-73
2022/06/30 02:10:42;;;;;;;18.92;17.08;;;19.40;99.90;;;;;;5078243;28;20072;-73
2022/06/30 02:13:07;;;;;;;18.38;16.48;;;19.20;99.90;;;;;;5092480;28;20109;-73
2022/06/30 02:15:33;;;;;;;20.13;17.13;;;19.20;99.90;;;;;;5081007;28;20464;-74
2022/06/30 02:18:01;;;;;;;18.73;16.75;;;19.10;99.90;;;;;;5095208;28;20114;-73
2022/06/30 02:20:27;;;;;;;16.55;14.90;;;19.20;99.90;;;;;;5094195;28;20452;-73
2022/06/30 02:22:58;;;;;;;19.00;17.20;;;19.00;99.90;;;;;;5087386;28;20033;-73
2022/06/30 02:25:26;;;;;;;19.80;17.73;;;19.00;99.90;;;;;;5089113;28;20034;-73
2022/06/30 02:27:52;;;;;;;19.58;17.63;;;18.90;99.90;;;;;;5093821;28;20439;-73
2022/06/30 02:30:18;;;;;;;18.13;16.45;;;18.80;99.90;;;;;;5094685;28;20059;-74
2022/06/30 02:32:44;;;;;;;20.98;18.77;;;18.70;99.90;;;;;;5093652;28;20118;-74
2022/06/30 02:35:10;;;;;;;18.55;16.85;;;18.70;99.90;;;;;;5094670;28;20027;-73
2022/06/30 02:37:36;;;;;;;18.40;16.77;;;18.60;99.90;;;;;;5094770;28;20036;-73
2022/06/30 02:40:02;;;;;;;17.58;15.80;;;18.50;99.90;;;;;;5085603;28;20039;-73
2022/06/30 02:42:28;;;;;;;19.55;16.52;;;18.50;99.90;;;;;;5088689;28;20039;-73
2022/06/30 02:44:54;;;;;;;17.52;15.90;;;18.40;99.90;;;;;;5094253;28;20361;-73
2022/06/30 02:47:19;;;;;;;18.98;17.00;;;18.40;99.90;;;;;;5093793;28;20082;-72
2022/06/30 02:49:45;;;;;;;21.75;17.15;;;18.40;99.90;;;;;;5094510;28;20425;-73
2022/06/30 02:52:10;;;;;;;21.33;17.73;;;18.40;99.90;;;;;;5093879;28;20491;-73
2022/06/30 02:54:36;;;;;;;20.77;18.67;;;18.40;99.90;;;;;;5093394;28;20127;-73
2022/06/30 02:57:02;;;;;;;18.30;16.63;;;18.40;99.90;;;;;;5093965;28;20016;-73
2022/06/30 02:59:28;;;;;;;17.25;15.75;;;18.30;99.90;;;;;;5092736;28;20119;-73
2022/06/30 03:01:53;;;;;;;17.58;15.90;;;18.30;99.90;;;;;;5092785;28;20044;-73
2022/06/30 03:04:21;;;;;;;19.52;17.65;;;18.30;99.90;;;;;;5093900;28;20051;-73
2022/06/30 03:06:46;;;;;;;18.73;17.08;;;18.30;99.90;;;;;;5093667;28;20020;-73
2022/06/30 03:09:12;;;;;;;18.40;16.75;;;18.30;99.90;;;;;;5092939;28;20016;-74
2022/06/30 03:11:39;;;;;;;18.02;16.33;;;18.20;99.90;;;;;;5093937;28;20024;-72
2022/06/30 03:14:04;;;;;;;18.83;17.00;;;18.30;99.90;;;;;;5086111;28;20043;-74
2022/06/30 03:16:30;;;;;;;18.02;16.23;;;18.20;99.90;;;;;;5086035;28;20110;-74
2022/06/30 03:18:56;;;;;;;19.65;17.70;;;18.20;99.90;;;;;;5093252;28;20031;-74
2022/06/30 03:21:21;;;;;;;18.63;16.75;;;18.30;99.90;;;;;;5093696;28;20113;-74
2022/06/30 03:23:47;;;;;;;21.15;19.05;;;18.20;99.90;;;;;;5092663;28;20597;-74
2022/06/30 03:26:14;;;;;;;20.40;18.55;;;18.30;99.90;;;;;;5093564;28;20032;-73
2022/06/30 03:28:40;;;;;;;18.63;16.90;;;18.20;99.90;;;;;;5093334;28;20077;-72
2022/06/30 03:31:05;;;;;;;18.58;16.88;;;18.20;99.90;;;;;;5092825;28;20036;-75
2022/06/30 03:33:31;;;;;;;20.08;18.00;;;18.10;99.90;;;;;;5094922;28;20468;-74
2022/06/30 03:35:57;;;;;;;19.15;17.42;;;18.10;99.90;;;;;;5093132;28;20059;-74
2022/06/30 03:38:22;;;;;;;18.58;16.98;;;18.00;99.90;;;;;;5093606;28;20132;-74
2022/06/30 03:40:48;;;;;;;18.27;16.67;;;18.00;99.90;;;;;;5093414;28;20532;-74
2022/06/30 03:43:14;;;;;;;21.55;19.23;;;18.00;99.90;;;;;;5093048;28;20032;-74
2022/06/30 03:45:39;;;;;;;20.77;18.80;;;18.00;99.90;;;;;;5093407;28;20027;-74
2022/06/30 03:48:06;;;;;;;19.98;17.90;;;18.10;99.90;;;;;;5093458;28;20028;-74
2022/06/30 03:50:33;;;;;;;18.77;17.02;;;18.10;99.90;;;;;;5092923;28;20030;-75
2022/06/30 03:52:59;;;;;;;19.30;17.45;;;18.00;99.90;;;;;;5093267;28;20127;-75
2022/06/30 03:55:25;;;;;;;21.50;18.48;;;17.90;99.90;;;;;;5093106;28;20097;-74
2022/06/30 03:57:51;;;;;;;19.17;17.50;;;17.90;99.90;;;;;;5092637;28;20179;-76
2022/06/30 04:00:17;;;;;;;20.27;18.38;;;17.80;99.90;;;;;;5093605;28;20028;-74
2022/06/30 04:02:42;;;;;;;23.20;20.90;;;17.80;99.90;;;;;;5093078;28;20023;-75
2022/06/30 04:05:08;;;;;;;26.80;21.67;;;17.80;99.90;;;;;;5092380;28;20096;-75
2022/06/30 04:07:45;;;;;;;22.83;20.60;;;17.80;99.90;;;;;;5093658;28;20024;-75
2022/06/30 04:10:13;;;;;;;24.25;22.02;;;17.80;99.90;;;;;;5092819;28;20051;-75
2022/06/30 04:12:39;;;;;;;22.63;20.33;;;17.80;99.90;;;;;;5092222;28;20414;-75
2022/06/30 04:15:06;;;;;;;21.90;19.92;;;17.90;99.90;;;;;;5078151;28;20487;-74
2022/06/30 04:17:33;;;;;;;23.20;20.80;;;17.80;99.90;;;;;;5092849;28;20024;-75
2022/06/30 04:20:01;;;;;;;23.45;21.15;;;17.80;99.90;;;;;;5091617;28;20085;-75
2022/06/30 04:22:26;;;;;;;22.20;19.98;;;17.80;99.90;;;;;;5092683;28;20494;-75
2022/06/30 04:24:52;;;;;;;22.80;20.48;;;17.90;99.90;;;;;;5092398;28;20028;-75
2022/06/30 04:27:18;;;;;;;25.60;22.77;;;18.00;99.90;;;;;;5092142;28;20054;-75
2022/06/30 04:29:44;;;;;;;23.70;21.38;;;18.00;99.90;;;;;;5092643;28;20451;-75
2022/06/30 04:34:53;;;;;;;23.52;21.38;;;18.10;99.90;;;;;;5092486;28;20545;-75
2022/06/30 04:37:19;;;;;;;23.83;21.55;;;18.20;99.90;;;;;;5092528;28;20028;-76
2022/06/30 04:39:44;;;;;;;24.13;21.55;;;18.40;99.90;;;;;;5091763;28;20040;-75
2022/06/30 04:42:10;;;;;;;24.80;22.20;;;18.40;99.90;;;;;;5092188;28;20110;-75
2022/06/30 04:44:36;;;;;;;23.30;20.23;;;18.50;99.90;;;;;;5092651;28;20020;-74
2022/06/30 04:47:01;;;;;;;23.73;20.48;;;18.50;99.90;;;;;;5091862;28;20024;-74
2022/06/30 04:49:27;;;;;;;22.65;20.23;;;18.50;99.90;;;;;;5092533;28;20027;-76
2022/06/30 04:51:53;;;;;;;24.77;20.75;;;18.50;99.90;;;;;;5092300;28;20020;-74
2022/06/30 04:54:18;;;;;;;21.77;19.60;;;18.50;99.90;;;;;;5091097;28;20040;-75
2022/06/30 04:56:47;;;;;;;20.88;18.63;;;18.70;99.90;;;;;;5092658;28;20012;-74
2022/06/30 04:59:12;;;;;;;22.77;18.27;;;18.60;99.90;;;;;;5092510;28;20032;-74
2022/06/30 05:01:38;;;;;;;18.63;16.33;;;18.70;99.90;;;;;;5091973;28;20027;-75
2022/06/30 05:04:06;;;;;;;17.60;15.25;;;18.70;99.90;;;;;;5092117;28;20060;-75
2022/06/30 05:06:32;;;;;;;21.00;14.52;;;18.60;99.90;;;;;;5092716;28;20067;-75
2022/06/30 05:08:57;;;;;;;15.35;13.65;;;18.60;99.90;;;;;;5091327;28;20032;-74
2022/06/30 05:11:23;;;;;;;14.23;12.77;;;18.50;99.90;;;;;;5092308;28;20016;-75
2022/06/30 05:13:49;;;;;;;15.05;10.23;;;18.60;99.90;;;;;;5086382;28;20074;-75
2022/06/30 05:16:14;;;;;;;12.65;8.65;;;18.70;99.90;;;;;;5082202;28;20527;-75
2022/06/30 05:18:40;;;;;;;8.25;6.65;;;18.60;99.90;;;;;;5091705;28;20016;-75
2022/06/30 05:21:05;;;;;;;7.75;5.93;;;18.60;99.90;;;;;;5091468;28;20024;-75
2022/06/30 05:23:31;;;;;;;11.45;6.35;;;18.60;99.90;;;;;;5094285;28;20028;-76
2022/06/30 05:28:40;;;;;;;8.15;5.68;;;18.70;99.90;;;;;;5094916;28;20831;-75
2022/06/30 05:31:06;;;;;;;11.90;6.25;;;18.60;99.90;;;;;;5095336;28;20103;-75
2022/06/30 05:33:34;;;;;;;8.60;7.13;;;18.70;99.90;;;;;;5095444;28;20384;-76
2022/06/30 05:36:00;;;;;;;8.77;7.60;;;18.60;99.90;;;;;;5094496;28;20020;-75
2022/06/30 05:38:26;;;;;;;9.43;7.13;;;18.60;99.90;;;;;;5096006;28;20034;-75
2022/06/30 05:40:52;;;;;;;10.18;7.75;;;18.60;99.90;;;;;;5095332;28;20110;-75
2022/06/30 05:43:18;;;;;;;12.82;8.25;;;18.60;99.90;;;;;;5094940;28;20028;-75
2022/06/30 05:45:50;;;;;;;8.15;7.35;;;18.60;99.90;;;;;;5095528;28;20032;-75
2022/06/30 05:48:16;;;;;;;12.48;6.65;;;18.60;99.90;;;;;;5095562;28;20035;-76
2022/06/30 05:50:42;;;;;;;9.85;6.25;;;18.50;99.90;;;;;;5093823;28;20031;-75
2022/06/30 05:53:08;;;;;;;6.93;5.60;;;18.50;99.90;;;;;;5094290;28;20032;-74
2022/06/30 05:55:33;;;;;;;10.70;6.45;;;18.50;99.90;;;;;;5094878;28;20027;-76
2022/06/30 05:58:04;;;;;;;12.38;6.38;;;18.50;99.90;;;;;;5093918;28;20023;-75
2022/06/30 06:00:31;;;;;;;;;;;18.60;99.90;;;;;;5095788;28;20028;-74
2022/06/30 06:02:58;;;;;;;7.45;5.85;;;18.60;99.90;;;;;;5095290;28;19903;-76
2022/06/30 06:05:24;;;;;;;11.02;6.07;;;18.60;99.90;;;;;;5094190;28;20137;-75
2022/06/30 06:07:51;;;;;;;14.88;5.28;;;18.60;99.90;;;;;;5094177;28;20020;-75
2022/06/30 06:10:17;;;;;;;13.68;5.30;;;18.70;99.90;;;;;;5094993;28;20073;-75
2022/06/30 06:12:43;;;;;;;9.82;5.25;;;18.70;99.90;;;;;;5094004;28;20024;-75
2022/06/30 06:15:13;;;;;;;10.10;4.75;;;18.70;99.90;;;;;;5080225;28;20035;-75
2022/06/30 06:17:46;;;;;;;8.77;4.65;;;18.80;99.90;;;;;;5094376;28;20106;-74
2022/06/30 06:20:15;;;;;;;11.60;4.80;;;18.80;99.90;;;;;;5075889;28;20093;-80
2022/06/30 06:22:41;;;;;;;10.10;4.70;;;18.80;99.90;;;;;;5077482;28;20025;-75
2022/06/30 06:25:08;;;;;;;6.55;4.55;;;18.80;99.90;;;;;;5074920;28;20021;-74
2022/06/30 06:27:34;;;;;;;10.07;4.22;;;18.90;99.90;;;;;;5073074;28;20025;-76
2022/06/30 06:30:00;;;;;;;9.15;3.92;;;18.90;99.90;;;;;;5072680;28;20388;-76
2022/06/30 06:32:26;;;;;;;10.80;3.72;;;18.90;99.90;;;;;;5078161;28;20025;-75
2022/06/30 06:34:51;;;;;;;6.90;4.30;;;19.00;99.90;;;;;;5074628;28;20534;-77
2022/06/30 06:37:17;;;;;;;6.68;3.60;;;19.00;99.90;;;;;;5073684;28;20044;-76
2022/06/30 06:39:42;;;;;;;6.32;3.47;;;19.00;99.90;;;;;;5072809;28;20074;-76
2022/06/30 06:42:08;;;;;;;5.03;3.15;;;19.20;99.90;;;;;;5077429;28;20021;-74
2022/06/30 06:44:34;;;;;;;4.97;2.70;;;19.20;99.90;;;;;;5073003;28;20032;-75
2022/06/30 06:47:00;;;;;;;7.47;3.90;;;19.20;99.90;;;;;;5080917;28;20028;-75
2022/06/30 06:49:27;;;;;;;10.38;3.75;;;19.30;99.90;;;;;;5073257;28;20024;-75
2022/06/30 06:51:56;;;;;;;14.77;3.40;;;19.30;99.90;;;;;;5083306;28;20016;-77
2022/06/30 06:54:21;;;;;;;6.63;2.90;;;19.30;99.90;;;;;;5073929;28;20916;-75
2022/06/30 06:56:47;;;;;;;9.68;3.78;;;19.40;99.90;;;;;;5073767;28;20020;-75
2022/06/30 06:59:12;;;;;;;6.30;2.70;;;19.20;99.90;;;;;;5073839;28;20040;-76
2022/06/30 07:01:38;;;;;;;4.03;2.58;;;19.50;99.90;;;;;;5072713;28;20510;-74
2022/06/30 07:04:04;;;;;;;4.03;2.15;;;19.50;99.90;;;;;;5075012;28;20055;-74
2022/06/30 07:06:30;;;;;;;5.63;2.80;;;19.70;99.90;;;;;;5073549;28;20023;-75
2022/06/30 07:08:55;;;;;;;6.22;3.20;;;19.60;99.90;;;;;;5072640;28;20396;-74
2022/06/30 07:11:21;;;;;;;6.55;2.63;;;19.70;99.90;;;;;;5072273;28;20032;-75
2022/06/30 07:13:46;;;;;;;6.85;3.08;;;19.80;99.90;;;;;;5074632;28;20033;-74
2022/06/30 07:16:12;;;;;;;3.63;2.97;;;19.80;99.90;;;;;;5074680;28;20086;-74
2022/06/30 07:18:38;;;;;;;7.05;3.13;;;19.90;99.90;;;;;;5073630;28;20027;-76
2022/06/30 07:21:04;;;;;;;4.78;2.70;;;19.90;99.90;;;;;;5072140;28;20024;-75
2022/06/30 07:23:29;;;;;;;8.02;2.88;;;20.10;99.90;;;;;;5072142;28;20029;-74
2022/06/30 07:25:55;;;;;;;6.40;3.85;;;20.20;99.90;;;;;;5072612;28;20086;-75
2022/06/30 07:28:20;;;;;;;7.90;3.60;;;20.20;99.90;;;;;;5072758;28;20103;-75
2022/06/30 07:30:48;;;;;;;3.67;3.38;;;20.20;99.90;;;;;;5072812;28;20025;-74
2022/06/30 07:33:13;;;;;;;4.40;2.80;;;20.30;99.90;;;;;;5072050;28;20495;-76
2022/06/30 07:35:39;;;;;;;3.78;2.60;;;20.40;99.90;;;;;;5071423;28;20028;-75
2022/06/30 07:38:04;;;;;;;7.03;2.38;;;20.40;99.90;;;;;;5072513;28;20034;-77
2022/06/30 07:40:30;;;;;;;5.97;2.80;;;20.40;99.90;;;;;;5077782;28;20498;-76
2022/06/30 07:42:56;;;;;;;11.63;2.40;;;20.50;99.90;;;;;;5071745;28;20017;-76
2022/06/30 07:45:22;;;;;;;6.03;2.20;;;20.40;99.90;;;;;;5071268;28;20052;-76
2022/06/30 07:47:49;;;;;;;4.80;2.55;;;20.50;99.90;;;;;;5072230;28;20020;-76
2022/06/30 07:50:16;;;;;;;5.10;2.13;;;20.60;99.90;;;;;;5072587;28;20024;-76
2022/06/30 07:52:42;;;;;;;6.68;2.70;;;20.60;99.90;;;;;;5072602;28;20396;-76
2022/06/30 07:55:08;;;;;;;6.13;2.30;;;20.60;99.90;;;;;;5071716;28;20089;-74
2022/06/30 07:57:37;;;;;;;5.85;2.40;;;20.60;99.90;;;;;;5071645;28;20025;-75
2022/06/30 08:00:06;;;;;;;5.13;2.53;;;20.60;99.90;;;;;;5073953;28;20024;-75
2022/06/30 08:02:32;;;;;;;6.63;2.13;;;20.70;99.90;;;;;;5077516;28;20052;-76
2022/06/30 08:04:58;;;;;;;6.72;2.63;;;20.70;99.90;;;;;;5076859;28;20057;-77
2022/06/30 08:07:23;;;;;;;5.43;2.25;;;20.80;99.90;;;;;;5072881;28;20021;-76
2022/06/30 08:09:49;;;;;;;4.47;2.42;;;20.70;99.90;;;;;;5072937;28;20028;-76
2022/06/30 08:12:15;;;;;;;3.83;2.08;;;20.80;99.90;;;;;;5072450;28;20028;-77
2022/06/30 08:14:40;;;;;;;9.05;2.72;;;20.90;99.90;;;;;;5072836;28;20035;-76
2022/06/30 08:17:09;;;;;;;5.88;2.00;;;20.90;99.90;;;;;;5090004;28;20472;-76
2022/06/30 08:19:35;;;;;;;6.38;2.05;;;21.10;99.90;;;;;;5091648;28;20120;-76
2022/06/30 08:22:00;;;;;;;6.43;2.60;;;21.10;99.90;;;;;;5081778;28;20454;-76
2022/06/30 08:24:26;;;;;;;3.03;2.00;;;21.10;99.90;;;;;;5070390;28;20381;-75
2022/06/30 08:26:52;;;;;;;3.08;1.63;;;21.10;99.90;;;;;;5072829;28;20103;-75
2022/06/30 08:29:17;;;;;;;6.63;2.05;;;21.20;99.90;;;;;;5088185;28;20085;-76
2022/06/30 08:31:43;;;;;;;4.60;2.20;;;21.30;99.90;;;;;;5076424;28;20024;-77
2022/06/30 08:34:09;;;;;;;4.32;1.83;;;21.30;99.90;;;;;;5076997;28;20039;-76
2022/06/30 08:36:34;;;;;;;8.23;2.05;;;21.40;99.90;;;;;;5071396;28;20495;-76
2022/06/30 08:39:00;;;;;;;3.60;1.80;;;21.50;99.90;;;;;;5071151;28;20057;-78
2022/06/30 08:44:12;;;;;;;7.07;2.00;;;21.60;99.90;;;;;;5056812;28;20333;-77
2022/06/30 08:46:39;;;;;;;3.92;1.70;;;21.70;99.90;;;;;;5074888;28;20383;-75
2022/06/30 08:49:05;;;;;;;3.63;1.70;;;21.90;99.90;;;;;;5079075;28;20074;-75
2022/06/30 08:51:34;;;;;;;5.03;1.95;;;21.80;99.90;;;;;;5073362;28;20093;-75
2022/06/30 08:54:01;;;;;;;4.80;1.60;;;21.80;99.90;;;;;;5070850;28;20033;-76
2022/06/30 08:56:34;;;;;;;3.10;1.98;;;21.80;99.90;;;;;;5078000;28;20307;-77
2022/06/30 08:59:01;;;;;;;5.65;2.00;;;21.90;99.90;;;;;;5075562;28;20024;-77
2022/06/30 09:01:28;;;;;;;3.53;1.70;;;21.90;99.90;;;;;;5075067;28;20090;-76
2022/06/30 09:03:54;;;;;;;5.88;1.50;;;22.00;99.90;;;;;;5075436;28;20075;-77
2022/06/30 09:06:20;;;;;;;8.93;2.55;;;22.00;99.90;;;;;;5075420;28;20020;-79
2022/06/30 09:08:46;;;;;;;4.40;1.95;;;22.10;99.90;;;;;;5074481;28;20024;-77
2022/06/30 09:11:11;;;;;;;5.47;1.90;;;22.10;99.90;;;;;;5074964;28;20020;-76
2022/06/30 09:13:48;;;;;;;3.38;2.20;;;22.00;99.90;;;;;;5074495;28;20028;-78
2022/06/30 09:16:14;;;;;;;6.43;2.38;;;22.10;99.90;;;;;;5086201;28;20032;-76
2022/06/30 09:18:40;;;;;;;4.80;1.65;;;22.10;99.90;;;;;;5095053;28;20103;-77
2022/06/30 09:21:17;;;;;;;5.78;1.80;;;22.20;99.90;;;;;;5094699;28;20050;-75
2022/06/30 09:23:45;;;;;;;3.33;2.05;;;22.20;99.90;;;;;;5095709;28;20020;-76
2022/06/30 09:26:21;;;;;;;4.38;2.05;;;22.30;99.90;;;;;;5095213;28;20024;-78
2022/06/30 09:28:46;;;;;;;5.65;1.90;;;22.30;99.90;;;;;;5094690;28;20049;-76
2022/06/30 09:31:14;;;;;;;8.15;3.45;;;22.40;99.90;;;;;;5095007;28;20353;-77
2022/06/30 09:33:44;;;;;;;3.28;1.77;;;22.40;99.90;;;;;;5087060;28;20032;-76
2022/06/30 09:36:20;;;;;;;;;;;22.50;99.90;;;;;;5074560;28;20452;-77
2022/06/30 09:39:15;;;;;;;3.17;2.17;;;22.50;99.90;;;;;;5074950;28;19905;-77
2022/06/30 09:41:43;;;;;;;3.67;1.92;;;22.70;99.90;;;;;;5065486;28;20099;-76
2022/06/30 09:44:20;;;;;;;5.32;2.63;;;22.80;99.90;;;;;;5074788;28;20447;-76
2022/06/30 09:47:03;;;;;;;6.80;2.13;;;22.90;99.90;;;;;;5074611;28;20028;-77
2022/06/30 09:49:40;;;;;;;4.25;2.63;;;22.90;99.90;;;;;;5082322;28;20117;-77
2022/06/30 09:52:23;;;;;;;5.90;2.25;;;22.90;99.90;;;;;;5089627;28;20028;-76
2022/06/30 09:54:59;;;;;;;6.82;2.30;;;22.80;99.90;;;;;;5075033;28;20037;-77
2022/06/30 09:57:35;;;;;;;3.40;1.77;;;23.00;99.90;;;;;;5074234;28;20017;-76
2022/06/30 10:00:09;;;;;;;3.83;2.25;;;23.00;99.90;;;;;;5081556;28;20055;-76
2022/06/30 10:02:41;;;;;;;4.28;2.15;;;23.00;99.90;;;;;;5080419;28;20044;-76
2022/06/30 10:05:08;;;;;;;5.38;2.38;;;23.00;99.90;;;;;;5085208;28;20507;-77
2022/06/30 10:07:35;;;;;;;8.75;2.00;;;23.10;99.90;;;;;;5080329;28;20032;-76
2022/06/30 10:10:06;;;;;;;3.03;2.10;;;23.20;99.90;;;;;;5074209;28;20133;-77
2022/06/30 10:12:32;;;;;;;4.93;2.05;;;23.30;99.90;;;;;;5087913;28;20032;-76
2022/06/30 10:14:59;;;;;;;4.68;2.40;;;23.40;99.90;;;;;;5082070;28;20044;-77
2022/06/30 10:17:28;;;;;;;3.88;2.10;;;23.50;99.90;;;;;;5074837;28;20516;-77
2022/06/30 10:19:55;;;;;;;7.72;2.42;;;23.60;99.90;;;;;;5073527;28;20024;-76
2022/06/30 10:22:23;;;;;;;11.05;2.92;;;23.70;99.90;;;;;;5077737;28;20032;-75
2022/06/30 10:24:50;;;;;;;5.82;2.47;;;23.50;99.60;;;;;;5092109;28;20020;-75
2022/06/30 10:27:17;;;;;;;5.10;2.40;;;23.60;99.80;;;;;;5088277;28;20130;-77
2022/06/30 10:30:12;;;;;;;7.10;2.13;;;23.80;99.90;;;;;;5074043;28;20033;-74
2022/06/30 10:33:10;;;;;;;6.75;2.20;;;24.00;99.90;;;;;;5079488;28;20035;-76
2022/06/30 10:35:41;;;;;;;3.88;2.08;;;24.20;99.80;;;;;;5091446;28;20054;-74
2022/06/30 10:38:12;;;;;;;3.85;1.92;;;24.20;98.70;;;;;;5082965;28;20153;-75
2022/06/30 10:40:44;;;;;;;5.60;2.58;;;24.20;98.90;;;;;;5094667;28;20107;-75
2022/06/30 10:43:09;;;;;;;6.47;2.17;;;24.10;99.30;;;;;;5093969;28;20032;-77
2022/06/30 10:45:36;;;;;;;5.10;1.90;;;24.10;99.20;;;;;;5089426;28;20357;-75
2022/06/30 10:48:07;;;;;;;6.03;2.05;;;23.90;99.00;;;;;;5084821;28;20032;-76
2022/06/30 10:50:39;;;;;;;6.40;1.92;;;23.90;99.50;;;;;;5073532;28;20032;-75
2022/06/30 10:53:07;;;;;;;6.82;2.08;;;23.90;99.40;;;;;;5072069;28;20496;-75
2022/06/30 10:55:55;;;;;;;7.45;2.17;;;24.10;99.60;;;;;;5073169;28;20035;-74
2022/06/30 10:58:24;;;;;;;11.30;3.13;;;24.30;99.50;;;;;;5073411;28;20027;-75
2022/06/30 11:00:55;;;;;;;7.13;2.50;;;24.30;99.10;;;;;;5072542;28;20039;-75
2022/06/30 11:03:34;;;;;;;5.88;2.20;;;24.40;99.80;;;;;;5082617;28;20423;-75
2022/06/30 11:06:09;;;;;;;4.50;1.80;;;24.50;99.40;;;;;;5088539;28;20427;-74
2022/06/30 11:08:47;;;;;;;11.43;2.25;;;24.50;99.50;;;;;;5082967;28;20024;-75
2022/06/30 11:11:34;;;;;;;5.03;2.05;;;24.30;99.90;;;;;;5078631;28;20028;-74
2022/06/30 11:14:03;;;;;;;7.03;3.03;;;24.10;99.60;;;;;;5059099;28;20047;-75
2022/06/30 11:16:33;;;;;;;3.53;2.22;;;23.80;99.60;;;;;;5086365;28;20114;-75
2022/06/30 11:19:00;;;;;;;6.70;3.72;;;23.60;99.90;;;;;;5093007;28;20024;-75
2022/06/30 11:21:28;;;;;;;2.65;2.15;;;23.60;99.90;;;;;;5092134;28;20031;-76
2022/06/30 11:24:00;;;;;;;7.45;2.42;;;23.60;99.90;;;;;;5092418;28;20489;-76
2022/06/30 11:29:14;;;;;;;5.07;2.10;;;23.70;99.90;;;;;;5092636;28;20379;-75
2022/06/30 11:31:41;;;;;;;5.30;2.00;;;23.80;99.90;;;;;;5092915;28;20613;-76
2022/06/30 11:34:08;;;;;;;3.00;1.90;;;23.90;99.90;;;;;;5091526;28;20035;-76
2022/06/30 11:36:36;;;;;;;4.68;2.25;;;23.90;99.70;;;;;;5093048;28;20028;-77
2022/06/30 11:39:06;;;;;;;4.20;2.00;;;24.00;99.90;;;;;;5092315;28;20020;-75
2022/06/30 11:44:32;;;;;;;3.08;2.20;;;23.90;99.90;;;;;;5092881;28;20080;-77
2022/06/30 11:46:59;;;;;;;7.35;2.65;;;23.70;99.90;;;;;;5089520;28;20031;-77
2022/06/30 11:49:41;;;;;;;5.55;2.08;;;23.80;99.90;;;;;;5088236;28;20024;-76
2022/06/30 11:52:23;;;;;;;9.05;3.17;;;23.60;99.90;;;;;;5090751;28;20376;-76
2022/06/30 11:54:57;;;;;;;4.32;2.03;;;23.80;99.90;;;;;;5078828;28;20089;-77
2022/06/30 11:57:28;;;;;;;3.97;1.95;;;23.60;99.90;;;;;;5090668;28;20027;-76
2022/06/30 12:00:13;;;;;;;3.92;2.53;;;23.60;99.90;;;;;;5083516;28;20035;-76
2022/06/30 12:02:40;;;;;;;6.80;2.85;;;23.50;99.90;;;;;;5072765;28;20021;-77
2022/06/30 12:05:09;;;;;;;3.40;2.00;;;23.40;99.90;;;;;;5072252;28;20041;-77
2022/06/30 12:07:35;;;;;;;4.57;2.47;;;23.20;99.90;;;;;;5070728;28;20082;-72
2022/06/30 12:10:03;;;;;;;4.10;2.13;;;23.10;99.90;;;;;;5078094;28;20024;-73
2022/06/30 12:12:30;;;;;;;3.13;2.00;;;23.00;99.90;;;;;;5092367;28;20035;-73
2022/06/30 12:15:00;;;;;;;3.90;2.10;;;22.90;99.90;;;;;;5077718;28;20068;-73
2022/06/30 12:17:31;;;;;;;7.32;2.45;;;22.80;99.90;;;;;;5078114;28;20103;-72
2022/06/30 12:19:57;;;;;;;3.60;1.95;;;22.60;99.90;;;;;;5091530;28;20032;-72
2022/06/30 12:22:22;;;;;;;6.28;2.20;;;22.60;99.90;;;;;;5092164;28;20039;-73
2022/06/30 12:24:48;;;;;;;4.40;2.30;;;22.40;99.90;;;;;;5091603;28;20020;-72
2022/06/30 12:27:51;;;;;;;8.10;3.03;;;22.20;99.90;;;;;;5084389;28;20065;-72
2022/06/30 12:30:21;;;;;;;4.38;2.33;;;22.10;99.90;;;;;;5087533;28;20036;-76
2022/06/30 12:32:59;;;;;;;5.43;2.47;;;22.20;99.90;;;;;;5089856;28;20085;-74
2022/06/30 12:35:32;;;;;;;7.57;3.08;;;22.40;99.90;;;;;;5091340;28;20112;-75
2022/06/30 12:38:10;;;;;;;5.47;2.20;;;22.60;99.90;;;;;;5088863;28;20148;-70
2022/06/30 12:40:37;;;;;;;7.70;2.63;;;22.70;99.90;;;;;;5086688;28;20028;-73
2022/06/30 12:43:03;;;;;;;6.38;2.42;;;22.60;99.90;;;;;;5088339;28;20028;-74
2022/06/30 12:45:46;;;;;;;9.20;2.92;;;22.70;99.90;;;;;;5085911;28;20012;-74
2022/06/30 12:48:38;;;;;;;6.32;2.40;;;22.60;99.90;;;;;;5088130;28;20103;-74
2022/06/30 12:51:03;;;;;;;5.65;2.80;;;22.80;99.90;;;;;;5089608;28;20024;-74
2022/06/30 12:53:29;;;;;;;9.93;3.58;;;23.00;99.90;;;;;;5084852;28;20032;-75
2022/06/30 12:56:13;;;;;;;4.18;3.08;;;23.00;99.90;;;;;;5089664;28;20042;-75
2022/06/30 12:58:59;;;;;;;3.42;2.28;;;22.90;99.90;;;;;;5089614;28;20024;-74